Mae Sot, Thailand
Current Conditions -  °F | °C
As of 9:00 AM on Tuesday 21 Oct 2014 (Local Time) from VTPP Reporting Station
Broken Clouds Broken Clouds  
Wind Chill: 81°   Ceiling: 30000
Heat Index: 86°   Visibility: 4mi
Dew Point: 75°   Wind: 2mph
Humidity: 84%   Direction: 20°NNE
Pressure: 30"   Gusts: NA
Location:  16.71°N, 98.57°E
Report Text: VTPP 210200Z 02002KT 7000 SCT020 SCT120 BKN300 27/24 Q1016
Loading
Personal Weather Stations






























Interactive Weather Map New forecast layout! Learn more

10-Day Weather Forecast

Advertisements
Track Severe Weather on mobile